Hauptseite
METAR-TAF:

METAR-TAF

Flughäfen :

Flugplatz Oberpfaffenhofen

Oberpfaffenhofen, Deutschland

Breite: 48-05N, Länge: 011-17E, Höhe: 600 m

Beobachtung

Neuester Wetterbericht von vor 1 Stunde und 8 Minuten, um 15:50 UTC
Wind 3 kt aus unterschiedlichen Richtungen
Temperatur 22°C
Luftfeuchtigkeit 50%
Luftdruck 1020 hPa
Sichtweite 10 km oder mehr
keine Wolken unter 1500 m und keine Kumulonimbus oder Gewitterwolken

METAR: EDMO 151550Z VRB03KT CAVOK 22/11 Q1020

Zeit: 18:58 (16:58 UTC)

Prognose

Neuester Wetterbericht von vor 23 Stunden und 58 Minuten, um 17:00 UTC
Gültige Prognose vom 14 um 18 UTC bis 15 um 03 UTC
Wind 8 kt aus West
Sichtweite 10 km oder mehr
keine Wolken unter 1500 m und keine Kumulonimbus oder Gewitterwolken
Übergehend zu
vom 14 um 18 UTC bis 14 um 20 UTC
Wind 3 kt aus Südwest

TAF: EDMO 141700Z 1418/1503 26008KT CAVOK BECMG 1418/1420 23003KT

Wetterbeobachtungen und Prognosen von mehr als 4000 Flughäfen (METAR und TAF Bericht).

Die verfügbaren Stationen werden durch gelbe und rote Markierungen auf der Karte dargestellt.

Führen Sie die Maus auf sie, um den Namen der Station zu sehen.

Darauf klicken, um die Beobachtung von Wetterbeobachtungen und Prognosen zu sehen.

Um die Karte zu ändern : klicken Sie auf den grünen Tasten mit einem schwarzen Kreuz Zum Vergrößern, auf den grünen Button mit einem Gedankenstrich zu verkleinern, oder auf die grünen Pfeile für benachbarte Karten.


METAR-TAF: